sensor_id;sensor_type;location;lat;lon;timestamp;pressure;altitude;pressure_sealevel;temperature;humidity
65897;BME280;52677;50.898;10.854;2023-07-08T00:01:32;98910.66;;;13.96;100.00
65897;BME280;52677;50.898;10.854;2023-07-08T00:03:32;98906.69;;;13.90;100.00
65897;BME280;52677;50.898;10.854;2023-07-08T00:05:32;98907.44;;;13.84;100.00
65897;BME280;52677;50.898;10.854;2023-07-08T00:07:33;98911.41;;;13.83;100.00
65897;BME280;52677;50.898;10.854;2023-07-08T00:09:33;98905.00;;;13.78;100.00
65897;BME280;52677;50.898;10.854;2023-07-08T00:11:33;98901.03;;;13.80;100.00
65897;BME280;52677;50.898;10.854;2023-07-08T00:13:34;98889.91;;;13.76;100.00
65897;BME280;52677;50.898;10.854;2023-07-08T00:15:35;98892.25;;;13.70;100.00
65897;BME280;52677;50.898;10.854;2023-07-08T00:17:36;98891.81;;;13.65;100.00
65897;BME280;52677;50.898;10.854;2023-07-08T00:19:36;98895.78;;;13.60;100.00
65897;BME280;52677;50.898;10.854;2023-07-08T00:21:37;98889.38;;;13.56;100.00
65897;BME280;52677;50.898;10.854;2023-07-08T00:23:37;98892.16;;;13.53;100.00
65897;BME280;52677;50.898;10.854;2023-07-08T00:25:38;98878.59;;;13.44;100.00
65897;BME280;52677;50.898;10.854;2023-07-08T00:27:38;98881.34;;;13.37;100.00
65897;BME280;52677;50.898;10.854;2023-07-08T00:29:39;98884.47;;;13.32;100.00
65897;BME280;52677;50.898;10.854;2023-07-08T00:31:39;98883.72;;;13.35;100.00
65897;BME280;52677;50.898;10.854;2023-07-08T00:33:39;98885.25;;;13.29;100.00
65897;BME280;52677;50.898;10.854;2023-07-08T00:35:41;98889.16;;;13.20;100.00
65897;BME280;52677;50.898;10.854;2023-07-08T00:37:42;98891.88;;;13.17;100.00
65897;BME280;52677;50.898;10.854;2023-07-08T00:39:42;98891.44;;;13.11;100.00
65897;BME280;52677;50.898;10.854;2023-07-08T00:41:43;98889.84;;;13.10;100.00
65897;BME280;52677;50.898;10.854;2023-07-08T00:43:55;98899.31;;;13.06;100.00
65897;BME280;52677;50.898;10.854;2023-07-08T00:46:12;98898.50;;;13.02;100.00
65897;BME280;52677;50.898;10.854;2023-07-08T00:48:23;98903.22;;;12.98;100.00
65897;BME280;52677;50.898;10.854;2023-07-08T00:50:23;98898.06;;;12.96;100.00
65897;BME280;52677;50.898;10.854;2023-07-08T00:52:26;98890.13;;;12.94;100.00
65897;BME280;52677;50.898;10.854;2023-07-08T00:54:27;98893.66;;;12.91;100.00
65897;BME280;52677;50.898;10.854;2023-07-08T00:56:58;98890.44;;;12.89;100.00
65897;BME280;52677;50.898;10.854;2023-07-08T00:59:07;98896.44;;;12.91;100.00
65897;BME280;52677;50.898;10.854;2023-07-08T01:01:10;98900.03;;;12.92;100.00
65897;BME280;52677;50.898;10.854;2023-07-08T01:03:11;98905.50;;;12.85;100.00
65897;BME280;52677;50.898;10.854;2023-07-08T01:05:16;98895.94;;;12.82;100.00
65897;BME280;52677;50.898;10.854;2023-07-08T01:07:19;98894.72;;;12.80;100.00
65897;BME280;52677;50.898;10.854;2023-07-08T01:09:21;98903.44;;;12.78;100.00
65897;BME280;52677;50.898;10.854;2023-07-08T01:11:22;98901.06;;;12.77;100.00
65897;BME280;52677;50.898;10.854;2023-07-08T01:13:22;98891.47;;;12.67;100.00
65897;BME280;52677;50.898;10.854;2023-07-08T01:15:27;98899.66;;;12.56;100.00
65897;BME280;52677;50.898;10.854;2023-07-08T01:17:30;98894.41;;;12.48;100.00
65897;BME280;52677;50.898;10.854;2023-07-08T01:19:33;98891.22;;;12.42;100.00
65897;BME280;52677;50.898;10.854;2023-07-08T01:21:46;98891.53;;;12.37;100.00
65897;BME280;52677;50.898;10.854;2023-07-08T01:23:46;98884.34;;;12.32;100.00
65897;BME280;52677;50.898;10.854;2023-07-08T01:25:47;98879.97;;;12.31;100.00
65897;BME280;52677;50.898;10.854;2023-07-08T01:27:49;98884.78;;;12.34;100.00
65897;BME280;52677;50.898;10.854;2023-07-08T01:29:52;98886.75;;;12.34;100.00
65897;BME280;52677;50.898;10.854;2023-07-08T01:31:55;98892.63;;;12.29;100.00
65897;BME280;52677;50.898;10.854;2023-07-08T01:33:56;98892.97;;;12.24;100.00
65897;BME280;52677;50.898;10.854;2023-07-08T01:35:56;98893.69;;;12.17;100.00
65897;BME280;52677;50.898;10.854;2023-07-08T01:37:59;98880.16;;;12.12;100.00
65897;BME280;52677;50.898;10.854;2023-07-08T01:42:19;98881.28;;;12.07;100.00
65897;BME280;52677;50.898;10.854;2023-07-08T01:44:36;98883.63;;;12.05;100.00
65897;BME280;52677;50.898;10.854;2023-07-08T01:46:36;98873.25;;;11.99;100.00
65897;BME280;52677;50.898;10.854;2023-07-08T01:48:40;98876.78;;;11.96;100.00
65897;BME280;52677;50.898;10.854;2023-07-08T01:51:03;98879.88;;;11.91;100.00
65897;BME280;52677;50.898;10.854;2023-07-08T01:53:20;98878.34;;;11.93;100.00
65897;BME280;52677;50.898;10.854;2023-07-08T01:55:23;98874.81;;;11.96;100.00
65897;BME280;52677;50.898;10.854;2023-07-08T01:57:24;98872.84;;;11.97;100.00
65897;BME280;52677;50.898;10.854;2023-07-08T01:59:24;98868.84;;;11.94;100.00
65897;BME280;52677;50.898;10.854;2023-07-08T02:01:25;98864.91;;;11.95;100.00
65897;BME280;52677;50.898;10.854;2023-07-08T02:03:26;98864.91;;;11.95;100.00
65897;BME280;52677;50.898;10.854;2023-07-08T02:05:27;98862.03;;;11.88;100.00
65897;BME280;52677;50.898;10.854;2023-07-08T02:07:27;98863.13;;;11.80;100.00
65897;BME280;52677;50.898;10.854;2023-07-08T02:09:27;98878.03;;;11.72;100.00
65897;BME280;52677;50.898;10.854;2023-07-08T02:11:30;98873.72;;;11.74;100.00
65897;BME280;52677;50.898;10.854;2023-07-08T02:13:30;98869.34;;;11.73;100.00
65897;BME280;52677;50.898;10.854;2023-07-08T02:15:31;98868.91;;;11.68;100.00
65897;BME280;52677;50.898;10.854;2023-07-08T02:17:32;98874.00;;;11.66;100.00
65897;BME280;52677;50.898;10.854;2023-07-08T02:19:32;98869.59;;;11.61;100.00
65897;BME280;52677;50.898;10.854;2023-07-08T02:21:33;98875.81;;;11.54;100.00
65897;BME280;52677;50.898;10.854;2023-07-08T02:23:33;98872.22;;;11.50;100.00
65897;BME280;52677;50.898;10.854;2023-07-08T02:25:34;98868.97;;;11.45;100.00
65897;BME280;52677;50.898;10.854;2023-07-08T02:27:35;98865.03;;;11.46;100.00
65897;BME280;52677;50.898;10.854;2023-07-08T02:29:35;98873.28;;;11.42;100.00
65897;BME280;52677;50.898;10.854;2023-07-08T02:31:37;98879.25;;;11.44;100.00
65897;BME280;52677;50.898;10.854;2023-07-08T02:33:38;98868.09;;;11.41;100.00
65897;BME280;52677;50.898;10.854;2023-07-08T02:35:38;98865.69;;;11.36;100.00
65897;BME280;52677;50.898;10.854;2023-07-08T02:37:38;98869.56;;;11.31;100.00
65897;BME280;52677;50.898;10.854;2023-07-08T02:39:39;98874.25;;;11.27;100.00
65897;BME280;52677;50.898;10.854;2023-07-08T02:41:39;98872.59;;;11.22;100.00
65897;BME280;52677;50.898;10.854;2023-07-08T02:43:39;98867.06;;;11.22;100.00
65897;BME280;52677;50.898;10.854;2023-07-08T02:45:40;98876.91;;;11.20;100.00
65897;BME280;52677;50.898;10.854;2023-07-08T02:47:40;98870.88;;;11.14;100.00
65897;BME280;52677;50.898;10.854;2023-07-08T02:49:40;98875.94;;;11.09;100.00
65897;BME280;52677;50.898;10.854;2023-07-08T02:51:41;98880.25;;;11.06;100.00
65897;BME280;52677;50.898;10.854;2023-07-08T02:53:41;98876.25;;;11.04;100.00
65897;BME280;52677;50.898;10.854;2023-07-08T02:55:41;98867.88;;;11.00;100.00
65897;BME280;52677;50.898;10.854;2023-07-08T02:57:42;98869.84;;;11.00;100.00
65897;BME280;52677;50.898;10.854;2023-07-08T02:59:42;98880.13;;;10.99;100.00
65897;BME280;52677;50.898;10.854;2023-07-08T03:01:43;98881.69;;;10.96;100.00
65897;BME280;52677;50.898;10.854;2023-07-08T03:03:44;98878.41;;;10.91;100.00
65897;BME280;52677;50.898;10.854;2023-07-08T03:05:54;98890.25;;;10.88;100.00
65897;BME280;52677;50.898;10.854;2023-07-08T03:07:54;98875.53;;;10.84;100.00
65897;BME280;52677;50.898;10.854;2023-07-08T03:09:54;98885.00;;;10.83;100.00
65897;BME280;52677;50.898;10.854;2023-07-08T03:11:55;98876.28;;;10.81;100.00
65897;BME280;52677;50.898;10.854;2023-07-08T03:13:55;98874.25;;;10.78;100.00
65897;BME280;52677;50.898;10.854;2023-07-08T03:15:56;98876.66;;;10.79;100.00
65897;BME280;52677;50.898;10.854;2023-07-08T03:17:57;98879.91;;;10.85;100.00
65897;BME280;52677;50.898;10.854;2023-07-08T03:19:57;98872.41;;;10.85;100.00
65897;BME280;52677;50.898;10.854;2023-07-08T03:21:58;98875.91;;;10.82;100.00
65897;BME280;52677;50.898;10.854;2023-07-08T03:23:59;98874.69;;;10.80;100.00
65897;BME280;52677;50.898;10.854;2023-07-08T03:25:59;98883.28;;;10.75;100.00
65897;BME280;52677;50.898;10.854;2023-07-08T03:27:59;98875.72;;;10.72;100.00
65897;BME280;52677;50.898;10.854;2023-07-08T03:30:00;98887.59;;;10.72;100.00
65897;BME280;52677;50.898;10.854;2023-07-08T03:32:00;98879.66;;;10.71;100.00
65897;BME280;52677;50.898;10.854;2023-07-08T03:34:00;98876.09;;;10.70;100.00
65897;BME280;52677;50.898;10.854;2023-07-08T03:36:02;98879.34;;;10.76;100.00
65897;BME280;52677;50.898;10.854;2023-07-08T03:38:02;98890.66;;;10.90;100.00
65897;BME280;52677;50.898;10.854;2023-07-08T03:40:03;98882.84;;;10.95;100.00
65897;BME280;52677;50.898;10.854;2023-07-08T03:42:04;98882.09;;;10.98;100.00
65897;BME280;52677;50.898;10.854;2023-07-08T03:44:04;98879.28;;;10.95;100.00
65897;BME280;52677;50.898;10.854;2023-07-08T03:46:05;98888.66;;;10.87;100.00
65897;BME280;52677;50.898;10.854;2023-07-08T03:48:05;98888.22;;;10.85;100.00
65897;BME280;52677;50.898;10.854;2023-07-08T03:50:08;98883.78;;;10.80;100.00
65897;BME280;52677;50.898;10.854;2023-07-08T03:52:15;98887.78;;;10.83;100.00
65897;BME280;52677;50.898;10.854;2023-07-08T03:54:17;98890.19;;;10.84;100.00
65897;BME280;52677;50.898;10.854;2023-07-08T03:56:18;98893.75;;;10.85;100.00
65897;BME280;52677;50.898;10.854;2023-07-08T03:58:18;98902.91;;;10.89;100.00
65897;BME280;52677;50.898;10.854;2023-07-08T04:00:19;98893.84;;;10.92;100.00
65897;BME280;52677;50.898;10.854;2023-07-08T04:02:19;98900.69;;;10.98;100.00
65897;BME280;52677;50.898;10.854;2023-07-08T04:04:20;98901.69;;;11.09;100.00
65897;BME280;52677;50.898;10.854;2023-07-08T04:06:21;98907.41;;;11.23;100.00
65897;BME280;52677;50.898;10.854;2023-07-08T04:08:21;98907.22;;;11.36;100.00
65897;BME280;52677;50.898;10.854;2023-07-08T04:10:22;98900.25;;;11.45;100.00
65897;BME280;52677;50.898;10.854;2023-07-08T04:12:22;98905.09;;;11.52;100.00
65897;BME280;52677;50.898;10.854;2023-07-08T04:14:22;98905.56;;;11.58;100.00
65897;BME280;52677;50.898;10.854;2023-07-08T04:16:28;98899.28;;;11.61;100.00
65897;BME280;52677;50.898;10.854;2023-07-08T04:18:30;98905.72;;;11.68;100.00
65897;BME280;52677;50.898;10.854;2023-07-08T04:20:30;98905.00;;;11.75;100.00
65897;BME280;52677;50.898;10.854;2023-07-08T04:22:31;98911.47;;;11.82;100.00
65897;BME280;52677;50.898;10.854;2023-07-08T04:24:31;98908.78;;;11.90;100.00
65897;BME280;52677;50.898;10.854;2023-07-08T04:26:31;98914.06;;;11.98;100.00
65897;BME280;52677;50.898;10.854;2023-07-08T04:28:36;98915.84;;;12.14;100.00
65897;BME280;52677;50.898;10.854;2023-07-08T04:30:36;98915.53;;;12.22;100.00
65897;BME280;52677;50.898;10.854;2023-07-08T04:32:41;98913.25;;;12.31;100.00
65897;BME280;52677;50.898;10.854;2023-07-08T04:34:41;98912.16;;;12.40;100.00
65897;BME280;52677;50.898;10.854;2023-07-08T04:36:42;98911.06;;;12.48;100.00
65897;BME280;52677;50.898;10.854;2023-07-08T04:38:42;98908.38;;;12.55;100.00
65897;BME280;52677;50.898;10.854;2023-07-08T04:40:47;98910.03;;;12.63;100.00
65897;BME280;52677;50.898;10.854;2023-07-08T04:42:48;98905.75;;;12.69;100.00
65897;BME280;52677;50.898;10.854;2023-07-08T04:44:49;98899.00;;;12.70;100.00
65897;BME280;52677;50.898;10.854;2023-07-08T04:46:52;98901.84;;;12.77;100.00
65897;BME280;52677;50.898;10.854;2023-07-08T04:48:54;98903.84;;;12.77;100.00
65897;BME280;52677;50.898;10.854;2023-07-08T04:50:55;98903.84;;;12.77;100.00
65897;BME280;52677;50.898;10.854;2023-07-08T04:52:57;98908.22;;;12.78;100.00
65897;BME280;52677;50.898;10.854;2023-07-08T04:54:58;98910.59;;;12.79;100.00
65897;BME280;52677;50.898;10.854;2023-07-08T04:56:58;98902.31;;;12.83;100.00
65897;BME280;52677;50.898;10.854;2023-07-08T04:58:59;98915.81;;;12.84;100.00
65897;BME280;52677;50.898;10.854;2023-07-08T05:00:59;98906.38;;;12.92;100.00
65897;BME280;52677;50.898;10.854;2023-07-08T05:02:59;98902.09;;;13.02;100.00
65897;BME280;52677;50.898;10.854;2023-07-08T05:05:00;98904.06;;;13.02;100.00
65897;BME280;52677;50.898;10.854;2023-07-08T05:07:01;98915.25;;;13.09;100.00
65897;BME280;52677;50.898;10.854;2023-07-08T05:09:02;98903.75;;;13.14;100.00
65897;BME280;52677;50.898;10.854;2023-07-08T05:11:03;98912.53;;;13.16;100.00
65897;BME280;52677;50.898;10.854;2023-07-08T05:13:04;98910.16;;;13.18;100.00
65897;BME280;52677;50.898;10.854;2023-07-08T05:15:05;98914.91;;;13.17;100.00
65897;BME280;52677;50.898;10.854;2023-07-08T05:17:06;98928.06;;;13.20;100.00
65897;BME280;52677;50.898;10.854;2023-07-08T05:19:06;98937.22;;;13.25;100.00
65897;BME280;52677;50.898;10.854;2023-07-08T05:21:06;98911.03;;;13.26;100.00
65897;BME280;52677;50.898;10.854;2023-07-08T05:23:08;98918.53;;;13.21;100.00
65897;BME280;52677;50.898;10.854;2023-07-08T05:25:09;98899.94;;;13.29;100.00
65897;BME280;52677;50.898;10.854;2023-07-08T05:27:09;98908.72;;;13.38;100.00
65897;BME280;52677;50.898;10.854;2023-07-08T05:29:09;98897.25;;;13.43;100.00
65897;BME280;52677;50.898;10.854;2023-07-08T05:31:10;98899.25;;;13.46;100.00
65897;BME280;52677;50.898;10.854;2023-07-08T05:33:10;98898.91;;;13.52;100.00
65897;BME280;52677;50.898;10.854;2023-07-08T05:35:11;98901.72;;;13.59;100.00
65897;BME280;52677;50.898;10.854;2023-07-08T05:37:12;98904.56;;;13.66;100.00
65897;BME280;52677;50.898;10.854;2023-07-08T05:39:13;98906.22;;;13.81;100.00
65897;BME280;52677;50.898;10.854;2023-07-08T05:41:13;98900.34;;;13.93;100.00
65897;BME280;52677;50.898;10.854;2023-07-08T05:43:13;98907.16;;;14.10;100.00
65897;BME280;52677;50.898;10.854;2023-07-08T05:45:14;98913.16;;;14.23;100.00
65897;BME280;52677;50.898;10.854;2023-07-08T05:47:14;98899.69;;;14.32;100.00
65897;BME280;52677;50.898;10.854;2023-07-08T05:49:15;98902.09;;;14.41;100.00
65897;BME280;52677;50.898;10.854;2023-07-08T05:51:15;98903.31;;;14.47;100.00
65897;BME280;52677;50.898;10.854;2023-07-08T05:53:18;98901.38;;;14.51;100.00
65897;BME280;52677;50.898;10.854;2023-07-08T05:55:19;98906.94;;;14.54;100.00
65897;BME280;52677;50.898;10.854;2023-07-08T05:57:19;98905.34;;;14.60;100.00
65897;BME280;52677;50.898;10.854;2023-07-08T05:59:19;98910.56;;;14.76;100.00
65897;BME280;52677;50.898;10.854;2023-07-08T06:01:20;98905.03;;;14.91;100.00
65897;BME280;52677;50.898;10.854;2023-07-08T06:03:20;98904.63;;;15.06;100.00
65897;BME280;52677;50.898;10.854;2023-07-08T06:05:20;98904.22;;;15.22;100.00
65897;BME280;52677;50.898;10.854;2023-07-08T06:07:21;98902.22;;;15.37;100.00
65897;BME280;52677;50.898;10.854;2023-07-08T06:09:21;98902.22;;;15.48;100.00
65897;BME280;52677;50.898;10.854;2023-07-08T06:11:21;98897.81;;;15.57;100.00
65897;BME280;52677;50.898;10.854;2023-07-08T06:13:22;98896.63;;;15.65;100.00
65897;BME280;52677;50.898;10.854;2023-07-08T06:15:22;98891.81;;;15.77;100.00
65897;BME280;52677;50.898;10.854;2023-07-08T06:17:22;98892.59;;;15.84;100.00
65897;BME280;52677;50.898;10.854;2023-07-08T06:19:23;98903.31;;;15.96;100.00
65897;BME280;52677;50.898;10.854;2023-07-08T06:21:24;98894.13;;;16.03;100.00
65897;BME280;52677;50.898;10.854;2023-07-08T06:23:24;98900.03;;;16.19;100.00
65897;BME280;52677;50.898;10.854;2023-07-08T06:25:25;98896.00;;;16.27;100.00
65897;BME280;52677;50.898;10.854;2023-07-08T06:27:25;98888.41;;;16.39;100.00
65897;BME280;52677;50.898;10.854;2023-07-08T06:29:26;98886.75;;;16.48;100.00
65897;BME280;52677;50.898;10.854;2023-07-08T06:31:28;98891.84;;;16.61;100.00
65897;BME280;52677;50.898;10.854;2023-07-08T06:33:28;98895.41;;;16.72;100.00
65897;BME280;52677;50.898;10.854;2023-07-08T06:35:29;98890.53;;;16.83;99.99
65897;BME280;52677;50.898;10.854;2023-07-08T06:37:29;98896.41;;;16.96;99.21
65897;BME280;52677;50.898;10.854;2023-07-08T06:39:29;98897.09;;;17.10;97.88
65897;BME280;52677;50.898;10.854;2023-07-08T06:41:29;98891.81;;;17.23;97.50
65897;BME280;52677;50.898;10.854;2023-07-08T06:43:30;98888.50;;;17.35;97.28
65897;BME280;52677;50.898;10.854;2023-07-08T06:45:30;98888.81;;;17.45;95.02
65897;BME280;52677;50.898;10.854;2023-07-08T06:47:30;98888.31;;;17.53;95.02
65897;BME280;52677;50.898;10.854;2023-07-08T06:49:31;98887.03;;;17.65;95.48
65897;BME280;52677;50.898;10.854;2023-07-08T06:51:31;98885.34;;;17.75;95.17
65897;BME280;52677;50.898;10.854;2023-07-08T06:53:31;98892.50;;;17.79;93.87
65897;BME280;52677;50.898;10.854;2023-07-08T06:55:32;98892.81;;;17.85;93.51
65897;BME280;52677;50.898;10.854;2023-07-08T06:57:32;98890.31;;;17.94;94.00
65897;BME280;52677;50.898;10.854;2023-07-08T06:59:33;98878.22;;;18.04;93.10
65897;BME280;52677;50.898;10.854;2023-07-08T07:01:34;98880.88;;;18.15;93.53
65897;BME280;52677;50.898;10.854;2023-07-08T07:03:34;98889.56;;;18.24;93.42
65897;BME280;52677;50.898;10.854;2023-07-08T07:05:35;98886.97;;;18.40;93.71
65897;BME280;52677;50.898;10.854;2023-07-08T07:07:35;98886.81;;;18.51;92.98
65897;BME280;52677;50.898;10.854;2023-07-08T07:09:35;98882.69;;;18.59;92.24
65897;BME280;52677;50.898;10.854;2023-07-08T07:11:36;98892.94;;;18.73;90.81
65897;BME280;52677;50.898;10.854;2023-07-08T07:13:36;98886.72;;;18.85;91.07
65897;BME280;52677;50.898;10.854;2023-07-08T07:15:36;98896.19;;;18.95;90.83
65897;BME280;52677;50.898;10.854;2023-07-08T07:17:37;98882.81;;;19.06;90.82
65897;BME280;52677;50.898;10.854;2023-07-08T07:19:37;98894.28;;;19.15;88.90
65897;BME280;52677;50.898;10.854;2023-07-08T07:21:37;98885.38;;;19.20;88.15
65897;BME280;52677;50.898;10.854;2023-07-08T07:23:38;98883.97;;;19.32;86.63
65897;BME280;52677;50.898;10.854;2023-07-08T07:25:38;98888.59;;;19.42;87.02
65897;BME280;52677;50.898;10.854;2023-07-08T07:27:38;98886.03;;;19.51;85.94
65897;BME280;52677;50.898;10.854;2023-07-08T07:29:46;98881.06;;;19.62;88.22
65897;BME280;52677;50.898;10.854;2023-07-08T07:31:47;98874.66;;;19.82;86.38
65897;BME280;52677;50.898;10.854;2023-07-08T07:33:47;98883.53;;;20.00;85.10
65897;BME280;52677;50.898;10.854;2023-07-08T07:35:47;98887.28;;;20.13;84.09
65897;BME280;52677;50.898;10.854;2023-07-08T07:37:48;98875.03;;;20.24;84.45
65897;BME280;52677;50.898;10.854;2023-07-08T07:39:48;98873.94;;;20.37;82.03
65897;BME280;52677;50.898;10.854;2023-07-08T07:41:49;98875.75;;;20.47;82.44
65897;BME280;52677;50.898;10.854;2023-07-08T07:43:49;98873.63;;;20.52;81.74
65897;BME280;52677;50.898;10.854;2023-07-08T07:45:52;98880.38;;;20.74;79.99
65897;BME280;52677;50.898;10.854;2023-07-08T07:47:53;98866.44;;;20.87;79.29
65897;BME280;52677;50.898;10.854;2023-07-08T07:49:53;98868.88;;;21.01;78.97
65897;BME280;52677;50.898;10.854;2023-07-08T07:51:53;98869.94;;;21.07;79.92
65897;BME280;52677;50.898;10.854;2023-07-08T07:53:54;98863.50;;;21.23;77.01
65897;BME280;52677;50.898;10.854;2023-07-08T07:55:59;98868.25;;;21.42;75.47
65897;BME280;52677;50.898;10.854;2023-07-08T07:58:00;98868.50;;;21.64;75.39
65897;BME280;52677;50.898;10.854;2023-07-08T08:00:00;98862.16;;;21.76;74.48
65897;BME280;52677;50.898;10.854;2023-07-08T08:02:00;98865.44;;;21.87;72.56
65897;BME280;52677;50.898;10.854;2023-07-08T08:04:00;98867.75;;;22.05;70.62
65897;BME280;52677;50.898;10.854;2023-07-08T08:06:01;98862.19;;;22.18;70.76
65897;BME280;52677;50.898;10.854;2023-07-08T08:08:01;98872.38;;;22.28;72.23
65897;BME280;52677;50.898;10.854;2023-07-08T08:10:03;98868.75;;;22.40;71.69
65897;BME280;52677;50.898;10.854;2023-07-08T08:12:04;98868.13;;;22.62;70.65
65897;BME280;52677;50.898;10.854;2023-07-08T08:14:04;98870.94;;;22.75;69.61
65897;BME280;52677;50.898;10.854;2023-07-08T08:16:05;98866.00;;;22.91;69.91
65897;BME280;52677;50.898;10.854;2023-07-08T08:18:05;98868.69;;;23.08;69.35
65897;BME280;52677;50.898;10.854;2023-07-08T08:20:06;98857.50;;;23.17;67.45
65897;BME280;52677;50.898;10.854;2023-07-08T08:22:07;98876.59;;;23.25;67.25
65897;BME280;52677;50.898;10.854;2023-07-08T08:24:07;98878.25;;;23.36;66.95
65897;BME280;52677;50.898;10.854;2023-07-08T08:26:07;98874.41;;;23.42;66.56
65897;BME280;52677;50.898;10.854;2023-07-08T08:28:08;98872.78;;;23.67;66.34
65897;BME280;52677;50.898;10.854;2023-07-08T08:30:08;98869.44;;;23.81;65.46
65897;BME280;52677;50.898;10.854;2023-07-08T08:32:09;98876.38;;;24.02;62.49
65897;BME280;52677;50.898;10.854;2023-07-08T08:34:09;98875.19;;;24.12;62.37
65897;BME280;52677;50.898;10.854;2023-07-08T08:36:09;98874.78;;;24.23;61.53
65897;BME280;52677;50.898;10.854;2023-07-08T08:38:10;98867.34;;;24.38;61.34
65897;BME280;52677;50.898;10.854;2023-07-08T08:40:17;98873.38;;;24.49;61.68
65897;BME280;52677;50.898;10.854;2023-07-08T08:42:41;98863.44;;;24.67;60.62
65897;BME280;52677;50.898;10.854;2023-07-08T08:44:43;98861.44;;;24.76;61.58
65897;BME280;52677;50.898;10.854;2023-07-08T08:49:18;98855.41;;;25.05;59.19
65897;BME280;52677;50.898;10.854;2023-07-08T08:51:25;98857.50;;;25.14;57.75
65897;BME280;52677;50.898;10.854;2023-07-08T08:53:27;98863.03;;;25.27;59.57
65897;BME280;52677;50.898;10.854;2023-07-08T08:55:28;98863.38;;;25.38;57.77
65897;BME280;52677;50.898;10.854;2023-07-08T08:57:40;98864.03;;;25.51;56.93
65897;BME280;52677;50.898;10.854;2023-07-08T08:59:44;98856.47;;;25.57;56.69
65897;BME280;52677;50.898;10.854;2023-07-08T09:01:46;98857.56;;;25.60;58.09
65897;BME280;52677;50.898;10.854;2023-07-08T09:03:54;98847.66;;;25.64;58.13
65897;BME280;52677;50.898;10.854;2023-07-08T09:05:58;98854.59;;;25.72;58.45
65897;BME280;52677;50.898;10.854;2023-07-08T09:08:06;98850.53;;;25.73;56.77
65897;BME280;52677;50.898;10.854;2023-07-08T09:12:32;98848.13;;;25.54;56.09
65897;BME280;52677;50.898;10.854;2023-07-08T09:14:35;98861.50;;;25.53;56.71
65897;BME280;52677;50.898;10.854;2023-07-08T09:20:55;98858.53;;;26.02;53.25
65897;BME280;52677;50.898;10.854;2023-07-08T09:23:18;98855.19;;;26.22;55.47
65897;BME280;52677;50.898;10.854;2023-07-08T09:25:34;98838.78;;;26.36;53.80
65897;BME280;52677;50.898;10.854;2023-07-08T09:27:35;98843.69;;;26.44;52.97
65897;BME280;52677;50.898;10.854;2023-07-08T09:29:36;98843.50;;;26.48;52.03
65897;BME280;52677;50.898;10.854;2023-07-08T09:31:39;98843.03;;;26.49;48.66
65897;BME280;52677;50.898;10.854;2023-07-08T09:33:40;98837.22;;;26.44;47.55
65897;BME280;52677;50.898;10.854;2023-07-08T09:35:44;98841.81;;;26.41;48.16
65897;BME280;52677;50.898;10.854;2023-07-08T09:37:46;98839.88;;;26.56;46.73
65897;BME280;52677;50.898;10.854;2023-07-08T09:39:47;98835.16;;;26.86;47.16
65897;BME280;52677;50.898;10.854;2023-07-08T09:41:48;98847.56;;;27.07;46.07
65897;BME280;52677;50.898;10.854;2023-07-08T09:43:49;98838.88;;;27.02;44.17
65897;BME280;52677;50.898;10.854;2023-07-08T09:45:49;98839.41;;;26.91;45.24
65897;BME280;52677;50.898;10.854;2023-07-08T09:47:54;98839.28;;;26.85;42.75
65897;BME280;52677;50.898;10.854;2023-07-08T09:49:57;98839.28;;;26.85;41.81
65897;BME280;52677;50.898;10.854;2023-07-08T09:51:58;98836.22;;;26.98;42.30
65897;BME280;52677;50.898;10.854;2023-07-08T09:53:58;98839.16;;;27.13;40.83
65897;BME280;52677;50.898;10.854;2023-07-08T09:56:00;98837.34;;;27.25;40.69
65897;BME280;52677;50.898;10.854;2023-07-08T09:58:02;98834.50;;;27.25;41.52
65897;BME280;52677;50.898;10.854;2023-07-08T10:00:14;98833.06;;;27.29;41.16
65897;BME280;52677;50.898;10.854;2023-07-08T10:02:25;98833.53;;;27.28;40.45
65897;BME280;52677;50.898;10.854;2023-07-08T10:04:27;98833.84;;;27.30;41.21
65897;BME280;52677;50.898;10.854;2023-07-08T10:06:30;98831.13;;;27.35;40.31
65897;BME280;52677;50.898;10.854;2023-07-08T10:08:54;98827.06;;;27.51;39.91
65897;BME280;52677;50.898;10.854;2023-07-08T10:11:02;98830.63;;;27.61;39.23
65897;BME280;52677;50.898;10.854;2023-07-08T10:13:12;98829.28;;;27.71;40.14
65897;BME280;52677;50.898;10.854;2023-07-08T10:17:28;98838.47;;;27.66;40.17
65897;BME280;52677;50.898;10.854;2023-07-08T10:19:30;98839.16;;;27.61;37.72
65897;BME280;52677;50.898;10.854;2023-07-08T10:21:48;98837.16;;;27.52;38.51
65897;BME280;52677;50.898;10.854;2023-07-08T10:26:15;98836.75;;;27.68;38.19
65897;BME280;52677;50.898;10.854;2023-07-08T10:31:29;98846.81;;;27.93;37.66
65897;BME280;52677;50.898;10.854;2023-07-08T10:33:53;98832.59;;;28.08;37.89
65897;BME280;52677;50.898;10.854;2023-07-08T10:36:15;98828.97;;;28.08;37.44
65897;BME280;52677;50.898;10.854;2023-07-08T10:38:47;98834.06;;;28.18;38.17
65897;BME280;52677;50.898;10.854;2023-07-08T10:43:14;98837.22;;;28.20;37.30
65897;BME280;52677;50.898;10.854;2023-07-08T10:47:47;98842.16;;;28.49;37.25
65897;BME280;52677;50.898;10.854;2023-07-08T10:52:27;98832.50;;;28.62;37.16
65897;BME280;52677;50.898;10.854;2023-07-08T10:54:41;98830.34;;;28.71;36.15
65897;BME280;52677;50.898;10.854;2023-07-08T10:56:50;98830.97;;;28.46;35.49
65897;BME280;52677;50.898;10.854;2023-07-08T11:02:20;98841.53;;;28.01;36.39
65897;BME280;52677;50.898;10.854;2023-07-08T11:04:50;98832.69;;;27.99;36.09